Time,TemperatureF,DewpointF,PressureIn,WindDirection,WindDirectionDegrees,WindSpeedMPH,WindSpeedGustMPH,Humidity,HourlyPrecipIn,Conditions,Clouds,dailyrainin,SoftwareType,DateUTC
2013-12-03 00:04:00,39.1,35.8,29.86,WNW,290,0.0,0.0,88,0.00,,,0.01,Wunderground v.1.13,2013-12-03 05:04:00,
2013-12-03 00:09:00,39.0,35.7,29.86,WNW,290,0.0,0.0,88,0.00,,,0.01,Wunderground v.1.13,2013-12-03 05:09:00,
2013-12-03 00:13:00,38.9,35.6,29.86,WNW,290,0.0,0.0,88,0.00,,,0.01,Wunderground v.1.13,2013-12-03 05:13:00,
2013-12-03 00:23:00,38.8,35.6,29.86,WNW,290,0.0,0.0,88,0.00,,,0.01,Wunderground v.1.13,2013-12-03 05:23:00,
2013-12-03 00:29:00,38.8,35.6,29.86,WNW,290,0.0,0.0,88,0.00,,,0.01,Wunderground v.1.13,2013-12-03 05:29:00,
2013-12-03 00:39:00,38.8,35.6,29.87,WNW,290,0.0,0.0,88,0.00,,,0.01,Wunderground v.1.13,2013-12-03 05:39:00,
2013-12-03 00:44:00,38.7,35.5,29.87,WNW,290,0.0,0.0,88,0.00,,,0.01,Wunderground v.1.13,2013-12-03 05:44:00,
2013-12-03 00:53:00,38.7,35.5,29.86,WNW,290,0.0,0.0,88,0.00,,,0.01,Wunderground v.1.13,2013-12-03 05:53:00,
2013-12-03 00:58:00,38.7,35.5,29.86,WNW,290,0.0,0.0,88,0.00,,,0.01,Wunderground v.1.13,2013-12-03 05:58:00,
2013-12-03 01:04:00,38.6,35.6,29.87,WNW,290,0.0,0.0,89,0.00,,,0.01,Wunderground v.1.13,2013-12-03 06:04:00,
2013-12-03 01:14:00,38.6,35.6,29.86,WNW,290,0.0,0.0,89,0.00,,,0.01,Wunderground v.1.13,2013-12-03 06:14:00,
2013-12-03 01:23:00,38.6,35.6,29.87,WNW,290,0.0,0.0,89,0.00,,,0.01,Wunderground v.1.13,2013-12-03 06:23:00,
2013-12-03 01:34:00,38.4,35.4,29.86,WNW,290,0.0,0.0,89,0.00,,,0.01,Wunderground v.1.13,2013-12-03 06:34:00,
2013-12-03 01:44:00,38.3,35.3,29.86,WNW,290,0.0,0.0,89,0.00,,,0.01,Wunderground v.1.13,2013-12-03 06:44:00,
2013-12-03 01:53:00,38.3,35.3,29.87,WNW,290,0.0,0.0,89,0.00,,,0.01,Wunderground v.1.13,2013-12-03 06:53:00,
2013-12-03 02:04:00,38.3,35.3,29.87,WNW,290,0.0,0.0,89,0.00,,,0.01,Wunderground v.1.13,2013-12-03 07:04:00,
2013-12-03 02:14:00,38.2,35.2,29.87,WNW,290,0.0,0.0,89,0.00,,,0.01,Wunderground v.1.13,2013-12-03 07:14:00,
2013-12-03 02:23:00,38.1,35.1,29.88,WNW,290,0.0,0.0,89,0.00,,,0.01,Wunderground v.1.13,2013-12-03 07:23:00,
2013-12-03 02:28:00,38.1,35.1,29.88,WNW,290,0.0,0.0,89,0.00,,,0.01,Wunderground v.1.13,2013-12-03 07:28:00,
2013-12-03 02:39:00,38.0,35.0,29.88,WNW,290,0.0,1.0,89,0.00,,,0.01,Wunderground v.1.13,2013-12-03 07:39:00,
2013-12-03 02:49:00,38.0,35.3,29.88,WNW,290,0.0,1.0,90,0.00,,,0.01,Wunderground v.1.13,2013-12-03 07:49:00,
2013-12-03 02:58:00,37.9,35.2,29.88,WNW,290,0.0,0.0,90,0.00,,,0.01,Wunderground v.1.13,2013-12-03 07:58:00,
2013-12-03 03:04:00,38.0,35.3,29.88,WNW,290,0.0,0.0,90,0.00,,,0.01,Wunderground v.1.13,2013-12-03 08:04:00,
2013-12-03 03:14:00,37.9,35.2,29.88,WNW,290,0.0,1.0,90,0.00,,,0.01,Wunderground v.1.13,2013-12-03 08:14:00,
2013-12-03 03:23:00,37.9,35.2,29.88,WNW,290,0.0,0.0,90,0.00,,,0.01,Wunderground v.1.13,2013-12-03 08:23:00,
2013-12-03 03:33:00,37.9,35.2,29.88,WNW,290,0.0,0.0,90,0.00,,,0.01,Wunderground v.1.13,2013-12-03 08:33:00,
2013-12-03 03:39:00,37.8,35.1,29.88,WNW,290,0.0,0.0,90,0.00,,,0.01,Wunderground v.1.13,2013-12-03 08:39:00,
2013-12-03 03:49:00,37.9,35.2,29.88,WNW,290,0.0,0.0,90,0.00,,,0.01,Wunderground v.1.13,2013-12-03 08:49:00,
2013-12-03 03:58:00,37.8,35.1,29.88,WNW,290,0.0,0.0,90,0.00,,,0.01,Wunderground v.1.13,2013-12-03 08:58:00,
2013-12-03 04:04:00,37.8,35.1,29.88,WNW,290,0.0,0.0,90,0.00,,,0.01,Wunderground v.1.13,2013-12-03 09:04:00,
2013-12-03 04:14:00,37.8,35.1,29.88,WNW,290,0.0,0.0,90,0.00,,,0.01,Wunderground v.1.13,2013-12-03 09:14:00,
2013-12-03 04:24:00,37.9,35.2,29.88,WNW,290,0.0,0.0,90,0.00,,,0.01,Wunderground v.1.13,2013-12-03 09:24:00,
2013-12-03 04:33:00,37.8,35.1,29.88,WNW,290,0.0,0.0,90,0.00,,,0.01,Wunderground v.1.13,2013-12-03 09:33:00,
2013-12-03 04:43:00,37.8,35.1,29.88,WNW,290,0.0,0.0,90,0.00,,,0.01,Wunderground v.1.13,2013-12-03 09:43:00,
2013-12-03 04:49:00,37.9,35.2,29.88,WNW,290,0.0,0.0,90,0.00,,,0.01,Wunderground v.1.13,2013-12-03 09:49:00,
2013-12-03 04:59:00,37.8,35.1,29.88,WNW,290,0.0,0.0,90,0.00,,,0.01,Wunderground v.1.13,2013-12-03 09:59:00,
2013-12-03 05:04:00,37.8,35.1,29.89,WNW,290,0.0,0.0,90,0.00,,,0.01,Wunderground v.1.13,2013-12-03 10:04:00,
2013-12-03 05:13:00,37.8,35.1,29.89,WNW,290,0.0,0.0,90,0.00,,,0.01,Wunderground v.1.13,2013-12-03 10:13:00,
2013-12-03 05:19:00,37.8,35.1,29.89,WNW,290,0.0,0.0,90,0.00,,,0.01,Wunderground v.1.13,2013-12-03 10:19:00,
2013-12-03 05:29:00,37.9,35.5,29.89,WNW,290,0.0,1.0,91,0.00,,,0.01,Wunderground v.1.13,2013-12-03 10:29:00,
2013-12-03 05:38:00,37.9,35.5,29.89,WNW,290,0.0,0.0,91,0.00,,,0.01,Wunderground v.1.13,2013-12-03 10:38:00,
2013-12-03 05:49:00,37.9,35.5,29.89,WNW,290,0.0,0.0,91,0.00,,,0.01,Wunderground v.1.13,2013-12-03 10:49:00,
2013-12-03 05:59:00,37.9,35.5,29.89,WNW,290,0.0,0.0,91,0.00,,,0.01,Wunderground v.1.13,2013-12-03 10:59:00,
2013-12-03 06:04:00,37.9,35.5,29.89,WNW,290,0.0,0.0,91,0.00,,,0.01,Wunderground v.1.13,2013-12-03 11:04:00,
2013-12-03 06:14:00,37.9,35.5,29.88,WNW,290,0.0,0.0,91,0.00,,,0.01,Wunderground v.1.13,2013-12-03 11:14:00,
2013-12-03 06:24:00,37.8,35.4,29.89,WNW,290,0.0,0.0,91,0.00,,,0.01,Wunderground v.1.13,2013-12-03 11:24:00,
2013-12-03 06:33:00,37.8,35.4,29.89,WNW,290,0.0,0.0,91,0.00,,,0.01,Wunderground v.1.13,2013-12-03 11:33:00,
2013-12-03 06:44:00,37.7,35.3,29.89,WNW,290,0.0,0.0,91,0.00,,,0.01,Wunderground v.1.13,2013-12-03 11:44:00,
2013-12-03 06:53:00,37.6,35.2,29.90,WNW,290,0.0,0.0,91,0.00,,,0.00,Wunderground v.1.13,2013-12-03 11:53:00,
2013-12-03 07:04:00,37.5,35.1,29.90,WNW,290,0.0,0.0,91,0.00,,,0.00,Wunderground v.1.13,2013-12-03 12:04:00,
2013-12-03 07:13:00,37.5,35.1,29.90,WNW,290,0.0,0.0,91,0.00,,,0.00,Wunderground v.1.13,2013-12-03 12:13:00,
2013-12-03 07:24:00,37.3,34.9,29.90,WNW,290,0.0,0.0,91,0.00,,,0.00,Wunderground v.1.13,2013-12-03 12:24:00,
2013-12-03 07:33:00,37.3,34.9,29.90,WNW,290,0.0,0.0,91,0.00,,,0.00,Wunderground v.1.13,2013-12-03 12:33:00,
2013-12-03 07:43:00,37.2,34.8,29.90,WNW,290,0.0,0.0,91,0.00,,,0.00,Wunderground v.1.13,2013-12-03 12:43:00,
2013-12-03 07:49:00,37.1,34.7,29.90,WNW,290,0.0,0.0,91,0.00,,,0.00,Wunderground v.1.13,2013-12-03 12:49:00,
2013-12-03 07:59:00,37.2,34.8,29.90,WNW,290,0.0,0.0,91,0.00,,,0.00,Wunderground v.1.13,2013-12-03 12:59:00,
2013-12-03 08:04:00,37.2,34.8,29.90,WNW,290,0.0,0.0,91,0.00,,,0.00,Wunderground v.1.13,2013-12-03 13:04:00,
2013-12-03 08:14:00,37.4,35.0,29.91,WNW,290,0.0,1.0,91,0.00,,,0.00,Wunderground v.1.13,2013-12-03 13:14:00,
2013-12-03 08:24:00,37.5,35.4,29.91,WNW,290,0.0,0.0,92,0.00,,,0.00,Wunderground v.1.13,2013-12-03 13:24:00,
2013-12-03 08:33:00,37.7,35.6,29.91,WNW,290,0.0,0.0,92,0.00,,,0.00,Wunderground v.1.13,2013-12-03 13:33:00,
2013-12-03 08:43:00,37.7,35.6,29.91,WNW,290,0.0,0.0,92,0.00,,,0.00,Wunderground v.1.13,2013-12-03 13:43:00,
2013-12-03 08:49:00,37.8,35.7,29.91,WNW,290,0.0,0.0,92,0.00,,,0.00,Wunderground v.1.13,2013-12-03 13:49:00,
2013-12-03 08:54:00,37.8,35.7,29.90,WNW,290,0.0,0.0,92,0.00,,,0.00,Wunderground v.1.13,2013-12-03 13:54:00,
2013-12-03 09:04:00,38.0,35.9,29.91,WNW,290,0.0,0.0,92,0.00,,,0.00,Wunderground v.1.13,2013-12-03 14:04:00,
2013-12-03 09:13:00,38.1,36.0,29.91,WNW,290,0.0,0.0,92,0.00,,,0.00,Wunderground v.1.13,2013-12-03 14:13:00,
2013-12-03 09:19:00,38.3,36.2,29.91,WNW,290,0.0,0.0,92,0.00,,,0.00,Wunderground v.1.13,2013-12-03 14:19:00,
2013-12-03 09:28:00,40.3,38.4,29.91,WNW,290,0.0,1.0,93,0.00,,,0.00,Wunderground v.1.13,2013-12-03 14:28:00,
2013-12-03 09:39:00,40.2,38.1,29.92,WNW,290,0.0,2.0,92,0.00,,,0.00,Wunderground v.1.13,2013-12-03 14:39:00,
2013-12-03 09:49:00,40.9,38.8,29.92,WNW,290,1.0,3.0,92,0.00,,,0.00,Wunderground v.1.13,2013-12-03 14:49:00,
2013-12-03 09:58:00,41.9,39.5,29.92,West,271,1.0,3.0,91,0.00,,,0.00,Wunderground v.1.13,2013-12-03 14:58:00,
2013-12-03 10:04:00,42.4,39.7,29.93,SW,218,2.0,2.0,90,0.00,,,0.00,Wunderground v.1.13,2013-12-03 15:04:00,
2013-12-03 10:13:00,42.9,39.6,29.92,SSW,206,3.0,3.0,88,0.00,,,0.00,Wunderground v.1.13,2013-12-03 15:13:00,
2013-12-03 10:19:00,43.1,39.8,29.92,SSW,207,2.0,5.0,88,0.00,,,0.00,Wunderground v.1.13,2013-12-03 15:19:00,
2013-12-03 10:28:00,43.3,40.0,29.93,SSW,202,2.0,2.0,88,0.00,,,0.00,Wunderground v.1.13,2013-12-03 15:28:00,
2013-12-03 10:39:00,43.7,40.1,29.93,SSE,156,1.0,1.0,87,0.00,,,0.00,Wunderground v.1.13,2013-12-03 15:39:00,
2013-12-03 10:48:00,44.8,41.2,29.92,SW,223,0.0,3.0,87,0.00,,,0.00,Wunderground v.1.13,2013-12-03 15:48:00,
2013-12-03 10:59:00,46.0,41.7,29.92,South,175,1.0,2.0,85,0.00,,,0.00,Wunderground v.1.13,2013-12-03 15:59:00,
2013-12-03 11:04:00,46.7,42.1,29.91,South,183,1.0,4.0,84,0.00,,,0.00,Wunderground v.1.13,2013-12-03 16:04:00,
2013-12-03 11:14:00,47.6,42.1,29.91,SSE,160,1.0,1.0,81,0.00,,,0.00,Wunderground v.1.13,2013-12-03 16:14:00,
2013-12-03 11:23:00,48.7,42.5,29.91,SSE,163,1.0,1.0,79,0.00,,,0.00,Wunderground v.1.13,2013-12-03 16:23:00,
2013-12-03 11:33:00,49.8,42.9,29.90,SSE,155,1.0,1.0,77,0.00,,,0.00,Wunderground v.1.13,2013-12-03 16:33:00,
2013-12-03 11:39:00,50.1,43.2,29.90,WSW,254,1.0,3.0,77,0.00,,,0.00,Wunderground v.1.13,2013-12-03 16:39:00,
2013-12-03 11:48:00,50.2,42.6,29.90,SSW,209,2.0,5.0,75,0.00,,,0.00,Wunderground v.1.13,2013-12-03 16:48:00,
2013-12-03 11:59:00,50.9,43.3,29.89,SSE,167,1.0,3.0,75,0.00,,,0.00,Wunderground v.1.13,2013-12-03 16:59:00,
2013-12-03 12:04:00,51.1,42.4,29.89,SSE,157,1.0,3.0,72,0.00,,,0.00,Wunderground v.1.13,2013-12-03 17:04:00,
2013-12-03 12:13:00,51.6,42.9,29.89,WSW,244,1.0,1.0,72,0.00,,,0.00,Wunderground v.1.13,2013-12-03 17:13:00,
2013-12-03 12:19:00,51.7,42.6,29.89,SW,223,1.0,5.0,71,0.00,,,0.00,Wunderground v.1.13,2013-12-03 17:19:00,
2013-12-03 12:28:00,51.9,43.2,29.89,SSE,158,0.0,2.0,72,0.00,,,0.00,Wunderground v.1.13,2013-12-03 17:28:00,
2013-12-03 12:39:00,52.1,43.0,29.89,SSE,158,0.0,2.0,71,0.00,,,0.00,Wunderground v.1.13,2013-12-03 17:39:00,
2013-12-03 12:49:00,52.1,43.0,29.89,SSW,209,1.0,1.0,71,0.00,,,0.00,Wunderground v.1.13,2013-12-03 17:49:00,
2013-12-03 12:58:00,52.4,42.9,29.89,SW,226,1.0,3.0,70,0.00,,,0.00,Wunderground v.1.13,2013-12-03 17:58:00,
2013-12-03 13:04:00,52.9,43.0,29.88,SSW,209,1.0,4.0,69,0.00,,,0.00,Wunderground v.1.13,2013-12-03 18:04:00,
2013-12-03 13:13:00,53.9,44.0,29.88,SW,234,1.0,4.0,69,0.00,,,0.00,Wunderground v.1.13,2013-12-03 18:13:00,
2013-12-03 13:24:00,53.8,43.5,29.88,WSW,256,2.0,5.0,68,0.00,,,0.00,Wunderground v.1.13,2013-12-03 18:24:00,
2013-12-03 13:34:00,53.7,43.4,29.88,West,269,3.0,3.0,68,0.00,,,0.00,Wunderground v.1.13,2013-12-03 18:34:00,
2013-12-03 13:43:00,53.9,43.2,29.88,WSW,238,2.0,2.0,67,0.00,,,0.00,Wunderground v.1.13,2013-12-03 18:43:00,
2013-12-03 13:49:00,54.5,43.4,29.88,WNW,294,2.0,5.0,66,0.00,,,0.00,Wunderground v.1.13,2013-12-03 18:49:00,
2013-12-03 13:59:00,54.6,43.5,29.89,West,261,2.0,6.0,66,0.00,,,0.00,Wunderground v.1.13,2013-12-03 18:59:00,
2013-12-03 14:04:00,54.6,43.5,29.90,West,261,2.0,7.0,66,0.00,,,0.00,Wunderground v.1.13,2013-12-03 19:04:00,
2013-12-03 14:14:00,54.6,43.1,29.89,WSW,246,3.0,3.0,65,0.00,,,0.00,Wunderground v.1.13,2013-12-03 19:14:00,
2013-12-03 14:23:00,54.2,43.1,29.89,West,277,2.0,6.0,66,0.00,,,0.00,Wunderground v.1.13,2013-12-03 19:23:00,
2013-12-03 14:33:00,54.3,43.2,29.89,SW,225,1.0,2.0,66,0.00,,,0.00,Wunderground v.1.13,2013-12-03 19:33:00,
2013-12-03 14:39:00,54.3,43.2,29.88,SW,230,1.0,1.0,66,0.00,,,0.00,Wunderground v.1.13,2013-12-03 19:39:00,
2013-12-03 14:49:00,54.9,43.4,29.88,SSE,160,1.0,3.0,65,0.00,,,0.00,Wunderground v.1.13,2013-12-03 19:49:00,
2013-12-03 14:58:00,55.0,43.4,29.88,SSE,167,1.0,1.0,65,0.00,,,0.00,Wunderground v.1.13,2013-12-03 19:58:00,
2013-12-03 15:04:00,55.2,43.6,29.88,South,175,0.0,2.0,65,0.00,,,0.00,Wunderground v.1.13,2013-12-03 20:04:00,
2013-12-03 15:14:00,55.8,43.4,29.89,South,178,1.0,3.0,63,0.00,,,0.00,Wunderground v.1.13,2013-12-03 20:14:00,
2013-12-03 15:23:00,55.9,43.5,29.89,South,190,2.0,2.0,63,0.00,,,0.00,Wunderground v.1.13,2013-12-03 20:23:00,
2013-12-03 15:34:00,55.9,43.1,29.90,SSE,153,2.0,2.0,62,0.00,,,0.00,Wunderground v.1.13,2013-12-03 20:34:00,
2013-12-03 15:44:00,55.9,43.5,29.90,SSW,210,1.0,6.0,63,0.00,,,0.00,Wunderground v.1.13,2013-12-03 20:44:00,
2013-12-03 15:53:00,56.0,43.2,29.89,SSW,210,0.0,3.0,62,0.00,,,0.00,Wunderground v.1.13,2013-12-03 20:53:00,
2013-12-03 16:04:00,56.1,43.3,29.89,SSW,210,0.0,1.0,62,0.00,,,0.00,Wunderground v.1.13,2013-12-03 21:04:00,
2013-12-03 16:14:00,55.0,43.0,29.89,SSW,210,0.0,0.0,64,0.00,,,0.00,Wunderground v.1.13,2013-12-03 21:14:00,
2013-12-03 16:23:00,54.5,43.0,29.89,SSW,210,0.0,1.0,65,0.00,,,0.00,Wunderground v.1.13,2013-12-03 21:23:00,
2013-12-03 16:33:00,53.4,42.3,29.89,SSW,210,1.0,2.0,66,0.00,,,0.00,Wunderground v.1.13,2013-12-03 21:33:00,
2013-12-03 16:39:00,52.7,42.0,29.89,SSW,210,1.0,2.0,67,0.00,,,0.00,Wunderground v.1.13,2013-12-03 21:39:00,
2013-12-03 16:48:00,51.3,41.8,29.89,SSW,210,1.0,1.0,70,0.00,,,0.00,Wunderground v.1.13,2013-12-03 21:48:00,
2013-12-03 16:58:00,50.1,41.1,29.89,SSW,210,1.0,2.0,71,0.00,,,0.00,Wunderground v.1.13,2013-12-03 21:58:00,
2013-12-03 17:04:00,49.6,40.9,29.89,SSW,210,1.0,1.0,72,0.00,,,0.00,Wunderground v.1.13,2013-12-03 22:04:00,
2013-12-03 17:14:00,49.0,40.7,29.89,SSW,210,0.0,1.0,73,0.00,,,0.00,Wunderground v.1.13,2013-12-03 22:14:00,
2013-12-03 17:23:00,48.1,40.2,29.89,SSW,210,0.0,0.0,74,0.00,,,0.00,Wunderground v.1.13,2013-12-03 22:23:00,
2013-12-03 17:33:00,47.5,40.0,29.89,SSW,210,0.0,0.0,75,0.00,,,0.00,Wunderground v.1.13,2013-12-03 22:33:00,
2013-12-03 17:39:00,47.2,39.7,29.89,SSW,210,0.0,0.0,75,0.00,,,0.00,Wunderground v.1.13,2013-12-03 22:39:00,
2013-12-03 17:49:00,46.5,39.3,29.89,SSW,210,0.0,0.0,76,0.00,,,0.00,Wunderground v.1.13,2013-12-03 22:49:00,
2013-12-03 17:58:00,45.7,38.6,29.89,SSW,210,0.0,0.0,76,0.00,,,0.00,Wunderground v.1.13,2013-12-03 22:58:00,
2013-12-03 18:04:00,45.4,38.6,29.89,SSW,210,0.0,0.0,77,0.00,,,0.00,Wunderground v.1.13,2013-12-03 23:04:00,
2013-12-03 18:14:00,44.8,38.0,29.88,SSW,210,0.0,0.0,77,0.00,,,0.00,Wunderground v.1.13,2013-12-03 23:14:00,
2013-12-03 18:23:00,44.2,37.8,29.89,SSW,210,0.0,0.0,78,0.00,,,0.00,Wunderground v.1.13,2013-12-03 23:23:00,
2013-12-03 18:33:00,43.7,37.6,29.89,SSW,210,0.0,0.0,79,0.00,,,0.00,Wunderground v.1.13,2013-12-03 23:33:00,
2013-12-03 18:43:00,43.2,37.4,29.89,SSW,210,0.0,0.0,80,0.00,,,0.00,Wunderground v.1.13,2013-12-03 23:43:00,
2013-12-03 18:49:00,42.9,37.2,29.89,SSW,210,0.0,0.0,80,0.00,,,0.00,Wunderground v.1.13,2013-12-03 23:49:00,
2013-12-03 18:59:00,42.5,37.1,29.90,SSW,210,0.0,1.0,81,0.00,,,0.00,Wunderground v.1.13,2013-12-03 23:59:00,
2013-12-03 19:04:00,42.0,36.9,29.90,SSW,210,0.0,1.0,82,0.00,,,0.00,Wunderground v.1.13,2013-12-04 00:04:00,
2013-12-03 19:14:00,41.6,36.5,29.90,SSW,210,0.0,0.0,82,0.00,,,0.00,Wunderground v.1.13,2013-12-04 00:14:00,
2013-12-03 19:24:00,41.4,36.6,29.91,SSW,210,0.0,0.0,83,0.00,,,0.00,Wunderground v.1.13,2013-12-04 00:24:00,
2013-12-03 19:33:00,41.3,36.8,29.90,SSW,210,0.0,1.0,84,0.00,,,0.00,Wunderground v.1.13,2013-12-04 00:33:00,
2013-12-03 19:43:00,40.8,36.3,29.90,SSW,210,0.0,0.0,84,0.00,,,0.00,Wunderground v.1.13,2013-12-04 00:43:00,
2013-12-03 19:49:00,40.7,36.2,29.91,SSW,210,0.0,0.0,84,0.00,,,0.00,Wunderground v.1.13,2013-12-04 00:49:00,
2013-12-03 19:58:00,40.7,36.5,29.92,SSW,210,0.0,0.0,85,0.00,,,0.00,Wunderground v.1.13,2013-12-04 00:58:00,
2013-12-03 20:04:00,40.7,36.5,29.92,SSW,210,0.0,0.0,85,0.00,,,0.00,Wunderground v.1.13,2013-12-04 01:04:00,
2013-12-03 20:13:00,40.6,36.4,29.92,SSW,210,0.0,0.0,85,0.00,,,0.00,Wunderground v.1.13,2013-12-04 01:13:00,
2013-12-03 20:19:00,40.5,36.3,29.92,SSW,210,0.0,0.0,85,0.00,,,0.00,Wunderground v.1.13,2013-12-04 01:19:00,
2013-12-03 20:28:00,40.3,36.1,29.91,SSW,210,0.0,0.0,85,0.00,,,0.00,Wunderground v.1.13,2013-12-04 01:28:00,
2013-12-03 20:39:00,40.0,35.9,29.91,SSW,210,0.0,0.0,85,0.00,,,0.00,Wunderground v.1.13,2013-12-04 01:39:00,
2013-12-03 20:49:00,39.9,36.1,29.91,SSW,210,0.0,0.0,86,0.00,,,0.00,Wunderground v.1.13,2013-12-04 01:49:00,
2013-12-03 20:58:00,39.6,35.8,29.92,SSW,210,0.0,0.0,86,0.00,,,0.00,Wunderground v.1.13,2013-12-04 01:58:00,
2013-12-03 21:04:00,39.4,35.3,29.92,SSW,210,0.0,0.0,85,0.00,,,0.00,Wunderground v.1.13,2013-12-04 02:04:00,
2013-12-03 21:14:00,39.2,35.4,29.92,SSW,210,0.0,0.0,86,0.00,,,0.00,Wunderground v.1.13,2013-12-04 02:14:00,
2013-12-03 21:23:00,39.0,35.2,29.92,SSW,210,0.0,0.0,86,0.00,,,0.00,Wunderground v.1.13,2013-12-04 02:23:00,
2013-12-03 21:33:00,38.9,35.1,29.91,SSW,210,0.0,0.0,86,0.00,,,0.00,Wunderground v.1.13,2013-12-04 02:33:00,
2013-12-03 21:39:00,38.7,34.9,29.92,SSW,210,0.0,0.0,86,0.00,,,0.00,Wunderground v.1.13,2013-12-04 02:39:00,
2013-12-03 21:49:00,38.5,34.7,29.91,SSW,210,0.0,0.0,86,0.00,,,0.00,Wunderground v.1.13,2013-12-04 02:49:00,
2013-12-03 21:58:00,38.4,34.9,29.91,SSW,210,0.0,0.0,87,0.00,,,0.00,Wunderground v.1.13,2013-12-04 02:58:00,
2013-12-03 22:04:00,38.3,34.8,29.91,SSW,210,0.0,0.0,87,0.00,,,0.00,Wunderground v.1.13,2013-12-04 03:04:00,
2013-12-03 22:14:00,38.2,34.7,29.91,SSW,210,0.0,0.0,87,0.00,,,0.00,Wunderground v.1.13,2013-12-04 03:14:00,
2013-12-03 22:23:00,38.1,34.9,29.91,SSW,210,0.0,1.0,88,0.00,,,0.00,Wunderground v.1.13,2013-12-04 03:23:00,
2013-12-03 22:33:00,38.0,34.8,29.91,SSW,210,0.0,1.0,88,0.00,,,0.00,Wunderground v.1.13,2013-12-04 03:33:00,
2013-12-03 22:39:00,37.9,34.7,29.91,SSW,210,0.0,0.0,88,0.00,,,0.00,Wunderground v.1.13,2013-12-04 03:39:00,
2013-12-03 22:49:00,37.8,34.6,29.91,SSW,210,0.0,0.0,88,0.00,,,0.00,Wunderground v.1.13,2013-12-04 03:49:00,
2013-12-03 22:58:00,37.9,34.9,29.91,SSW,210,0.0,0.0,89,0.00,,,0.00,Wunderground v.1.13,2013-12-04 03:58:00,
2013-12-03 23:04:00,37.9,34.9,29.91,SSW,210,0.0,1.0,89,0.00,,,0.00,Wunderground v.1.13,2013-12-04 04:04:00,
2013-12-03 23:14:00,37.8,34.8,29.92,SSW,210,0.0,0.0,89,0.00,,,0.00,Wunderground v.1.13,2013-12-04 04:14:00,
2013-12-03 23:23:00,37.7,34.8,29.92,SSW,210,0.0,0.0,89,0.00,,,0.00,Wunderground v.1.13,2013-12-04 04:23:00,
2013-12-03 23:33:00,37.6,34.7,29.93,SSW,210,0.0,0.0,89,0.00,,,0.00,Wunderground v.1.13,2013-12-04 04:33:00,
2013-12-03 23:39:00,37.5,34.6,29.92,SSW,210,0.0,0.0,89,0.00,,,0.00,Wunderground v.1.13,2013-12-04 04:39:00,
2013-12-03 23:49:00,37.4,34.5,29.92,SSW,210,0.0,0.0,89,0.00,,,0.00,Wunderground v.1.13,2013-12-04 04:49:00,
2013-12-03 23:58:00,37.3,34.4,29.92,SSW,210,0.0,0.0,89,0.00,,,0.00,Wunderground v.1.13,2013-12-04 04:58:00,